Time;durP1;ratioP1;P1;durP2;ratioP2;P2;SDS_P1;SDS_P2;PMS_P1;PMS_P2;Temp;Humidity;BMP_temperature;BMP_pressure;BME280_temperature;BME280_humidity;BME280_pressure;Samples;Min_cycle;Max_cycle;Signal;HPM_P1;HPM_P2
2021/04/21 00:00:29;;;;;;;1.93;1.73;;;;;;;;;;5117801;28;20283;-71
2021/04/21 00:02:57;;;;;;;2.13;2.03;;;;;;;;;;5117794;28;20292;-71
2021/04/21 00:05:24;;;;;;;2.97;1.93;;;;;;;;;;5117717;28;20267;-70
2021/04/21 00:07:52;;;;;;;2.40;2.20;;;;;;;;;;5121463;28;20215;-70
2021/04/21 00:10:21;;;;;;;2.30;2.00;;;;;;;;;;5121638;27;20209;-70
2021/04/21 00:12:49;;;;;;;1.97;1.87;;;;;;;;;;5121036;28;20692;-71
2021/04/21 00:15:19;;;;;;;2.00;1.90;;;;;;;;;;5120842;28;20221;-70
2021/04/21 00:17:48;;;;;;;2.87;1.80;;;;;;;;;;5121315;28;20205;-71
2021/04/21 00:20:15;;;;;;;2.53;1.90;;;;;;;;;;5121405;27;20298;-71
2021/04/21 00:22:43;;;;;;;2.00;1.90;;;;;;;;;;5120978;28;20209;-71
2021/04/21 00:25:13;;;;;;;2.00;1.90;;;;;;;;;;5120714;28;20229;-71
2021/04/21 00:27:41;;;;;;;2.50;2.30;;;;;;;;;;5121077;28;20268;-71
2021/04/21 00:30:11;;;;;;;3.27;2.17;;;;;;;;;;5120669;28;20740;-70
2021/04/21 00:32:41;;;;;;;2.57;2.23;;;;;;;;;;5121547;27;20243;-70
2021/04/21 00:35:09;;;;;;;2.30;2.10;;;;;;;;;;5120647;28;20637;-71
2021/04/21 00:37:36;;;;;;;2.40;2.20;;;;;;;;;;5110124;28;20292;-70
2021/04/21 00:40:05;;;;;;;3.43;2.53;;;;;;;;;;5120960;28;20210;-71
2021/04/21 00:42:36;;;;;;;2.17;2.00;;;;;;;;;;5120880;28;20288;-70
2021/04/21 00:45:05;;;;;;;3.40;2.77;;;;;;;;;;5120195;27;20311;-70
2021/04/21 00:47:39;;;;;;;2.50;2.30;;;;;;;;;;5120462;28;20241;-71
2021/04/21 00:50:10;;;;;;;2.40;2.20;;;;;;;;;;5120737;28;20288;-71
2021/04/21 00:52:41;;;;;;;2.33;2.17;;;;;;;;;;5120533;28;20652;-70
2021/04/21 00:55:10;;;;;;;2.33;2.20;;;;;;;;;;5120627;28;20749;-69
2021/04/21 00:57:41;;;;;;;2.50;2.30;;;;;;;;;;5120545;28;20211;-71
2021/04/21 01:00:09;;;;;;;3.70;2.40;;;;;;;;;;5120278;28;20264;-71
2021/04/21 01:02:41;;;;;;;3.80;2.37;;;;;;;;;;5120247;28;20282;-71
2021/04/21 01:05:11;;;;;;;2.67;2.43;;;;;;;;;;5120485;28;20252;-71
2021/04/21 01:07:39;;;;;;;2.30;2.10;;;;;;;;;;5120611;28;20229;-71
2021/04/21 01:10:07;;;;;;;4.03;2.77;;;;;;;;;;5120705;28;20200;-71
2021/04/21 01:12:35;;;;;;;2.77;2.57;;;;;;;;;;5120206;28;20288;-71
2021/04/21 01:15:03;;;;;;;4.53;2.80;;;;;;;;;;5119748;27;20260;-70
2021/04/21 01:17:32;;;;;;;4.57;2.70;;;;;;;;;;5119034;28;20289;-70
2021/04/21 01:20:23;;;;;;;3.37;2.77;;;;;;;;;;5120340;28;20211;-71
2021/04/21 01:23:04;;;;;;;2.97;2.67;;;;;;;;;;5104696;27;20686;-70
2021/04/21 01:25:38;;;;;;;3.03;2.73;;;;;;;;;;5119710;28;20260;-71
2021/04/21 01:28:09;;;;;;;3.90;2.80;;;;;;;;;;5119701;28;20210;-70
2021/04/21 01:30:37;;;;;;;3.13;2.83;;;;;;;;;;5119967;28;20236;-70
2021/04/21 01:33:05;;;;;;;5.63;3.03;;;;;;;;;;5120061;28;20211;-70
2021/04/21 01:35:33;;;;;;;3.13;2.80;;;;;;;;;;5118785;28;20217;-70
2021/04/21 01:38:01;;;;;;;4.50;3.53;;;;;;;;;;5110138;28;20672;-70
2021/04/21 01:40:30;;;;;;;3.47;3.00;;;;;;;;;;5119472;28;20291;-70
2021/04/21 01:43:00;;;;;;;3.57;3.07;;;;;;;;;;5119610;28;20209;-70
2021/04/21 01:45:29;;;;;;;3.73;3.20;;;;;;;;;;5119092;28;20633;-70
2021/04/21 01:47:57;;;;;;;3.47;3.17;;;;;;;;;;5119691;28;20208;-70
2021/04/21 01:50:25;;;;;;;5.17;3.53;;;;;;;;;;5119457;28;20283;-70
2021/04/21 01:52:54;;;;;;;3.73;3.00;;;;;;;;;;5119563;28;20211;-70
2021/04/21 01:55:35;;;;;;;3.30;3.00;;;;;;;;;;5119372;28;20227;-70
2021/04/21 01:58:07;;;;;;;3.70;3.40;;;;;;;;;;5119091;28;20263;-70
2021/04/21 02:00:35;;;;;;;3.53;3.17;;;;;;;;;;5119497;28;20236;-70
2021/04/21 02:03:13;;;;;;;3.70;3.30;;;;;;;;;;5119369;28;20248;-70
2021/04/21 02:05:45;;;;;;;3.60;3.17;;;;;;;;;;5118986;28;20240;-70
2021/04/21 02:08:15;;;;;;;4.60;3.30;;;;;;;;;;5119181;28;20287;-70
2021/04/21 02:10:48;;;;;;;6.23;3.43;;;;;;;;;;5119300;28;20205;-70
2021/04/21 02:13:19;;;;;;;3.60;3.30;;;;;;;;;;5118891;28;20269;-70
2021/04/21 02:16:00;;;;;;;5.13;3.30;;;;;;;;;;5118741;28;20303;-70
2021/04/21 02:18:33;;;;;;;4.57;3.40;;;;;;;;;;5106309;28;20243;-70
2021/04/21 02:21:03;;;;;;;3.60;3.30;;;;;;;;;;5119062;28;20240;-70
2021/04/21 02:23:34;;;;;;;4.10;3.23;;;;;;;;;;5118961;28;20209;-70
2021/04/21 02:26:10;;;;;;;3.87;3.47;;;;;;;;;;5118414;28;20791;-70
2021/04/21 02:28:43;;;;;;;4.53;3.50;;;;;;;;;;5118439;28;20235;-70
2021/04/21 02:31:17;;;;;;;4.00;3.40;;;;;;;;;;5118892;28;20291;-70
2021/04/21 02:33:49;;;;;;;3.53;3.23;;;;;;;;;;5118578;28;20649;-70
2021/04/21 02:36:22;;;;;;;3.63;3.30;;;;;;;;;;5111307;28;20637;-70
2021/04/21 02:38:53;;;;;;;5.83;3.53;;;;;;;;;;5116496;28;20291;-70
2021/04/21 02:41:21;;;;;;;3.43;3.13;;;;;;;;;;5118643;28;20201;-70
2021/04/21 02:43:59;;;;;;;3.50;3.20;;;;;;;;;;5118285;28;20267;-70
2021/04/21 02:46:30;;;;;;;3.33;3.03;;;;;;;;;;5118575;28;20287;-70
2021/04/21 02:49:07;;;;;;;3.90;3.43;;;;;;;;;;5118379;28;20208;-70
2021/04/21 02:51:39;;;;;;;4.67;3.43;;;;;;;;;;5118737;27;20287;-70
2021/04/21 02:54:09;;;;;;;5.00;3.17;;;;;;;;;;5118574;28;20232;-70
2021/04/21 02:56:39;;;;;;;4.20;3.37;;;;;;;;;;5118054;28;20232;-69
2021/04/21 02:59:10;;;;;;;3.73;3.13;;;;;;;;;;5118322;28;20264;-70
2021/04/21 03:01:40;;;;;;;3.30;2.97;;;;;;;;;;5118138;28;20236;-70
2021/04/21 03:04:13;;;;;;;3.57;3.10;;;;;;;;;;5118610;28;20249;-70
2021/04/21 03:06:42;;;;;;;3.80;3.50;;;;;;;;;;5118531;28;20236;-70
2021/04/21 03:09:11;;;;;;;4.30;3.27;;;;;;;;;;5118397;28;20246;-70
2021/04/21 03:11:38;;;;;;;5.07;3.17;;;;;;;;;;5118089;28;20293;-70
2021/04/21 03:14:08;;;;;;;3.87;3.33;;;;;;;;;;5117918;28;20268;-70
2021/04/21 03:16:37;;;;;;;3.57;3.27;;;;;;;;;;5118418;28;20205;-70
2021/04/21 03:19:05;;;;;;;6.03;3.47;;;;;;;;;;5118355;28;20211;-69
2021/04/21 03:21:36;;;;;;;4.07;3.30;;;;;;;;;;5118434;28;20291;-70
2021/04/21 03:24:07;;;;;;;3.20;2.90;;;;;;;;;;5118064;28;20228;-70
2021/04/21 03:26:35;;;;;;;3.63;3.33;;;;;;;;;;5117747;28;20264;-69
2021/04/21 03:29:05;;;;;;;3.60;3.30;;;;;;;;;;5117829;28;20291;-70
2021/04/21 03:31:34;;;;;;;4.20;3.30;;;;;;;;;;5117981;28;20288;-70
2021/04/21 03:34:03;;;;;;;5.17;3.70;;;;;;;;;;5118146;28;20211;-70
2021/04/21 03:36:30;;;;;;;4.07;3.70;;;;;;;;;;5100813;28;20232;-70
2021/04/21 03:38:58;;;;;;;4.90;3.63;;;;;;;;;;5116759;28;20284;-70
2021/04/21 03:41:25;;;;;;;5.93;3.43;;;;;;;;;;5119437;28;20288;-70
2021/04/21 03:43:53;;;;;;;4.13;3.70;;;;;;;;;;5121467;28;20771;-70
2021/04/21 03:46:20;;;;;;;4.07;3.50;;;;;;;;;;5121644;27;20584;-70
2021/04/21 03:48:48;;;;;;;5.77;3.60;;;;;;;;;;5121688;28;20209;-70
2021/04/21 03:51:15;;;;;;;3.83;3.47;;;;;;;;;;5121912;28;20205;-70
2021/04/21 03:53:43;;;;;;;5.03;3.60;;;;;;;;;;5121557;28;20201;-70
2021/04/21 03:56:12;;;;;;;3.73;3.43;;;;;;;;;;5121479;28;20279;-70
2021/04/21 03:58:40;;;;;;;5.80;3.80;;;;;;;;;;5121505;28;20224;-70
2021/04/21 04:01:11;;;;;;;5.30;3.77;;;;;;;;;;5121409;28;20208;-70
2021/04/21 04:03:39;;;;;;;9.33;3.60;;;;;;;;;;5121786;28;20204;-70
2021/04/21 04:06:08;;;;;;;4.50;3.80;;;;;;;;;;5121292;28;20233;-70
2021/04/21 04:08:39;;;;;;;4.47;3.70;;;;;;;;;;5121674;28;20287;-70
2021/04/21 04:11:08;;;;;;;4.27;3.80;;;;;;;;;;5121499;28;20239;-70
2021/04/21 04:13:38;;;;;;;4.20;3.70;;;;;;;;;;5121008;28;20694;-70
2021/04/21 04:16:06;;;;;;;5.27;3.97;;;;;;;;;;5121319;28;20727;-70
2021/04/21 04:18:35;;;;;;;5.23;4.10;;;;;;;;;;5121198;28;20330;-70
2021/04/21 04:21:05;;;;;;;6.57;4.00;;;;;;;;;;5121370;28;20236;-70
2021/04/21 04:23:33;;;;;;;6.87;3.83;;;;;;;;;;5121396;28;20240;-70
2021/04/21 04:26:03;;;;;;;6.67;3.77;;;;;;;;;;5120639;28;20328;-70
2021/04/21 04:28:32;;;;;;;7.53;3.87;;;;;;;;;;5120528;28;20204;-70
2021/04/21 04:31:00;;;;;;;5.20;4.07;;;;;;;;;;5120951;28;20288;-70
2021/04/21 04:33:28;;;;;;;5.83;3.67;;;;;;;;;;5121237;28;20209;-70
2021/04/21 04:35:56;;;;;;;4.67;3.90;;;;;;;;;;5116942;28;20784;-70
2021/04/21 04:38:23;;;;;;;3.67;3.27;;;;;;;;;;5115579;28;20236;-71
2021/04/21 04:40:51;;;;;;;8.03;3.97;;;;;;;;;;5121113;28;20248;-71
2021/04/21 04:43:19;;;;;;;6.07;4.47;;;;;;;;;;5120116;28;20287;-71
2021/04/21 04:45:49;;;;;;;5.30;4.63;;;;;;;;;;5120459;28;20264;-70
2021/04/21 04:48:21;;;;;;;5.23;4.03;;;;;;;;;;5120827;28;20299;-70
2021/04/21 04:50:49;;;;;;;5.37;4.17;;;;;;;;;;5120553;27;20205;-71
2021/04/21 04:53:16;;;;;;;6.87;4.60;;;;;;;;;;5119395;28;20233;-71
2021/04/21 04:55:44;;;;;;;7.13;4.73;;;;;;;;;;5120673;28;20256;-70
2021/04/21 04:58:12;;;;;;;5.03;4.07;;;;;;;;;;5119978;28;20327;-72
2021/04/21 05:00:40;;;;;;;5.50;4.27;;;;;;;;;;5120709;28;20232;-72
2021/04/21 05:03:14;;;;;;;6.37;4.67;;;;;;;;;;5120470;28;20237;-72
2021/04/21 05:05:43;;;;;;;8.27;4.97;;;;;;;;;;5122142;27;20303;-72
2021/04/21 05:08:12;;;;;;;6.23;4.73;;;;;;;;;;5120234;27;20268;-72
2021/04/21 05:10:41;;;;;;;7.00;5.23;;;;;;;;;;5121047;27;20283;-71
2021/04/21 05:13:09;;;;;;;6.63;4.57;;;;;;;;;;5120254;27;20203;-71
2021/04/21 05:16:01;;;;;;;7.13;4.77;;;;;;;;;;5117161;28;20308;-72
2021/04/21 05:18:51;;;;;;;5.80;4.60;;;;;;;;;;5118985;28;20231;-71
2021/04/21 05:21:36;;;;;;;6.53;4.70;;;;;;;;;;5118066;27;20196;-71
2021/04/21 05:24:21;;;;;;;5.00;4.50;;;;;;;;;;5091263;27;20223;-71
2021/04/21 05:27:11;;;;;;;5.27;4.83;;;;;;;;;;5119685;27;20236;-71
2021/04/21 05:29:59;;;;;;;8.70;4.47;;;;;;;;;;5120277;27;20189;-71
2021/04/21 05:32:43;;;;;;;5.47;4.70;;;;;;;;;;5120607;27;20223;-71
2021/04/21 05:35:29;;;;;;;10.47;4.83;;;;;;;;;;5119533;27;20239;-71
2021/04/21 05:38:14;;;;;;;7.80;5.07;;;;;;;;;;5118776;28;20265;-72
2021/04/21 05:40:54;;;;;;;9.40;5.33;;;;;;;;;;5119562;28;20228;-70
2021/04/21 05:43:47;;;;;;;7.63;5.37;;;;;;;;;;5119252;28;20232;-70
2021/04/21 05:46:27;;;;;;;7.33;4.87;;;;;;;;;;5119309;28;20311;-72
2021/04/21 05:49:07;;;;;;;6.23;4.83;;;;;;;;;;5106906;28;20201;-72
2021/04/21 05:51:53;;;;;;;6.90;4.90;;;;;;;;;;5119491;27;20677;-73
2021/04/21 05:54:47;;;;;;;7.50;4.20;;;;;;;;;;5119187;28;20246;-75
2021/04/21 05:57:20;;;;;;;7.20;4.67;;;;;;;;;;5139783;27;20638;-75
2021/04/21 06:00:07;;;;;;;7.63;4.57;;;;;;;;;;5124891;27;20287;-73
2021/04/21 06:02:36;;;;;;;6.77;4.87;;;;;;;;;;5118199;28;20289;-74
2021/04/21 06:05:04;;;;;;;6.57;4.90;;;;;;;;;;5104967;28;20668;-68
2021/04/21 06:07:31;;;;;;;9.57;5.13;;;;;;;;;;5107313;28;20269;-69
2021/04/21 06:09:58;;;;;;;6.73;4.97;;;;;;;;;;5104961;28;20197;-70
2021/04/21 06:12:25;;;;;;;8.00;5.70;;;;;;;;;;5102690;28;20201;-70
2021/04/21 06:14:52;;;;;;;8.40;5.20;;;;;;;;;;5118787;28;20254;-70
2021/04/21 06:17:25;;;;;;;12.13;5.97;;;;;;;;;;5118824;28;20200;-70
2021/04/21 06:19:54;;;;;;;7.27;6.13;;;;;;;;;;5119306;28;20268;-70
2021/04/21 06:22:28;;;;;;;9.93;5.97;;;;;;;;;;5118838;28;20236;-69
2021/04/21 06:25:11;;;;;;;9.87;5.73;;;;;;;;;;5118619;28;20260;-69
2021/04/21 06:27:39;;;;;;;8.43;5.50;;;;;;;;;;5103475;28;20333;-72
2021/04/21 06:30:07;;;;;;;10.73;5.47;;;;;;;;;;5107008;28;20288;-67
2021/04/21 06:32:34;;;;;;;6.53;4.73;;;;;;;;;;5104646;28;20252;-69
2021/04/21 06:35:07;;;;;;;10.97;5.87;;;;;;;;;;5108293;28;20712;-69
2021/04/21 06:37:35;;;;;;;8.40;4.83;;;;;;;;;;5107445;28;20211;-69
2021/04/21 06:40:03;;;;;;;8.07;4.97;;;;;;;;;;5112343;28;20193;-69
2021/04/21 06:42:33;;;;;;;6.23;4.80;;;;;;;;;;5103556;28;20196;-68
2021/04/21 06:45:00;;;;;;;6.87;5.17;;;;;;;;;;5105136;28;20270;-70
2021/04/21 06:47:28;;;;;;;6.07;4.37;;;;;;;;;;5107923;28;20246;-70
2021/04/21 06:49:59;;;;;;;12.13;4.70;;;;;;;;;;5105389;28;20224;-70
2021/04/21 06:52:33;;;;;;;6.63;4.43;;;;;;;;;;5104881;28;20224;-70
2021/04/21 06:55:05;;;;;;;7.57;4.23;;;;;;;;;;5105654;28;20575;-70
2021/04/21 06:57:33;;;;;;;6.43;5.00;;;;;;;;;;5105731;28;20193;-70
2021/04/21 07:00:07;;;;;;;7.53;5.00;;;;;;;;;;5105638;28;20198;-70
2021/04/21 07:02:35;;;;;;;6.60;4.90;;;;;;;;;;5105737;28;20243;-71
2021/04/21 07:05:02;;;;;;;6.30;4.87;;;;;;;;;;5104539;28;20222;-70
2021/04/21 07:07:29;;;;;;;8.50;5.23;;;;;;;;;;5106423;28;20205;-70
2021/04/21 07:09:57;;;;;;;6.40;5.00;;;;;;;;;;5104090;28;20285;-70
2021/04/21 07:12:26;;;;;;;7.30;4.27;;;;;;;;;;5103906;28;20216;-70
2021/04/21 07:14:54;;;;;;;6.80;3.87;;;;;;;;;;5103693;28;20217;-70
2021/04/21 07:17:21;;;;;;;7.20;4.30;;;;;;;;;;5107938;28;20699;-70
2021/04/21 07:19:48;;;;;;;5.57;4.30;;;;;;;;;;5112649;28;20715;-69
2021/04/21 07:22:17;;;;;;;10.00;4.97;;;;;;;;;;5121870;28;20731;-69
2021/04/21 07:24:45;;;;;;;7.37;4.70;;;;;;;;;;5122905;27;20252;-68
2021/04/21 07:27:14;;;;;;;6.23;4.20;;;;;;;;;;5141572;27;21081;-69
2021/04/21 07:29:45;;;;;;;8.97;5.07;;;;;;;;;;5109192;28;20197;-69
2021/04/21 07:32:17;;;;;;;6.50;4.67;;;;;;;;;;5117630;28;20236;-69
2021/04/21 07:34:44;;;;;;;8.30;4.97;;;;;;;;;;5121343;28;20259;-68
2021/04/21 07:37:11;;;;;;;7.43;4.70;;;;;;;;;;5110705;28;20371;-69
2021/04/21 07:39:41;;;;;;;8.63;5.33;;;;;;;;;;5121392;28;20574;-70
2021/04/21 07:42:16;;;;;;;7.13;5.30;;;;;;;;;;5121118;28;20781;-67
2021/04/21 07:44:52;;;;;;;6.37;4.97;;;;;;;;;;5120916;28;20285;-69
2021/04/21 07:47:19;;;;;;;13.00;4.90;;;;;;;;;;5121480;28;20212;-69
2021/04/21 07:49:53;;;;;;;6.70;5.17;;;;;;;;;;5121264;28;20639;-70
2021/04/21 07:52:24;;;;;;;5.43;4.80;;;;;;;;;;5121547;28;20268;-70
2021/04/21 07:55:04;;;;;;;8.37;4.67;;;;;;;;;;5121071;28;20314;-66
2021/04/21 07:57:32;;;;;;;7.47;5.03;;;;;;;;;;5108367;28;20560;-66
2021/04/21 07:59:59;;;;;;;7.47;4.70;;;;;;;;;;5108544;28;20735;-68
2021/04/21 08:02:30;;;;;;;6.97;4.83;;;;;;;;;;5103395;28;20240;-67
2021/04/21 08:04:57;;;;;;;9.73;4.80;;;;;;;;;;5119771;28;20590;-69
2021/04/21 08:07:28;;;;;;;8.80;4.80;;;;;;;;;;5117791;28;20193;-69
2021/04/21 08:09:56;;;;;;;5.10;4.43;;;;;;;;;;5106781;28;20726;-69
2021/04/21 08:12:24;;;;;;;6.57;5.40;;;;;;;;;;5105447;28;20201;-67
2021/04/21 08:14:53;;;;;;;8.03;4.87;;;;;;;;;;5106926;28;20630;-67
2021/04/21 08:17:20;;;;;;;5.87;4.87;;;;;;;;;;5131881;27;20642;-69
2021/04/21 08:19:48;;;;;;;6.33;4.30;;;;;;;;;;5141243;27;20272;-67
2021/04/21 08:22:22;;;;;;;7.13;5.03;;;;;;;;;;5141565;27;20290;-67
2021/04/21 08:24:49;;;;;;;6.37;4.20;;;;;;;;;;5140836;27;20310;-69
2021/04/21 08:27:17;;;;;;;10.17;4.60;;;;;;;;;;5140458;27;20322;-69
2021/04/21 08:29:45;;;;;;;5.70;4.40;;;;;;;;;;5119057;27;20297;-69
2021/04/21 08:32:19;;;;;;;7.63;4.30;;;;;;;;;;5107093;28;20258;-70
2021/04/21 08:34:47;;;;;;;5.10;3.77;;;;;;;;;;5110709;28;20217;-69
2021/04/21 08:37:14;;;;;;;5.60;3.60;;;;;;;;;;5108132;28;20257;-70
2021/04/21 08:39:41;;;;;;;5.20;4.40;;;;;;;;;;5106157;28;20232;-69
2021/04/21 08:42:09;;;;;;;5.50;3.63;;;;;;;;;;5108164;28;20228;-69
2021/04/21 08:44:40;;;;;;;4.70;3.17;;;;;;;;;;5106678;28;20253;-69
2021/04/21 08:47:08;;;;;;;6.07;3.90;;;;;;;;;;5107581;28;20281;-69
2021/04/21 08:49:37;;;;;;;4.73;3.60;;;;;;;;;;5106769;28;20209;-69
2021/04/21 08:52:05;;;;;;;6.53;4.07;;;;;;;;;;5107895;28;20259;-70
2021/04/21 08:54:32;;;;;;;8.10;3.93;;;;;;;;;;5105056;28;20303;-70
2021/04/21 08:57:01;;;;;;;6.83;4.37;;;;;;;;;;5107264;28;20228;-69
2021/04/21 08:59:28;;;;;;;6.63;3.80;;;;;;;;;;5107299;28;20216;-69
2021/04/21 09:01:55;;;;;;;5.13;3.67;;;;;;;;;;5108817;28;20197;-68
2021/04/21 09:04:22;;;;;;;6.27;4.20;;;;;;;;;;5108290;28;20773;-70
2021/04/21 09:06:50;;;;;;;4.63;3.33;;;;;;;;;;5107425;28;20266;-69
2021/04/21 09:09:18;;;;;;;4.73;3.60;;;;;;;;;;5104673;28;20276;-70
2021/04/21 09:11:45;;;;;;;6.33;3.83;;;;;;;;;;5105296;28;22501;-70
2021/04/21 09:14:12;;;;;;;3.57;3.20;;;;;;;;;;5118948;28;20668;-69
2021/04/21 09:16:39;;;;;;;3.43;3.13;;;;;;;;;;5119739;28;20193;-69
2021/04/21 09:19:16;;;;;;;5.53;3.07;;;;;;;;;;5140085;27;20575;-70
2021/04/21 09:21:43;;;;;;;3.77;3.37;;;;;;;;;;5139943;27;20214;-70
2021/04/21 09:24:25;;;;;;;5.50;3.33;;;;;;;;;;5140161;27;20235;-70
2021/04/21 09:26:52;;;;;;;3.60;3.30;;;;;;;;;;5139571;27;20231;-71
2021/04/21 09:29:24;;;;;;;6.20;3.50;;;;;;;;;;5139747;27;20633;-70
2021/04/21 09:32:04;;;;;;;3.63;3.17;;;;;;;;;;5139116;27;20268;-70
2021/04/21 09:34:53;;;;;;;6.13;3.30;;;;;;;;;;5118978;28;20618;-70
2021/04/21 09:37:24;;;;;;;3.93;3.40;;;;;;;;;;5112817;28;20205;-70
2021/04/21 09:39:52;;;;;;;6.17;3.87;;;;;;;;;;5118535;27;20209;-70
2021/04/21 09:42:25;;;;;;;6.27;3.47;;;;;;;;;;5119344;28;20287;-70
2021/04/21 09:44:53;;;;;;;4.50;3.87;;;;;;;;;;5118887;28;20258;-70
2021/04/21 09:47:20;;;;;;;10.57;7.43;;;;;;;;;;5119242;28;20667;-69
2021/04/21 09:49:54;;;;;;;6.50;4.03;;;;;;;;;;5119111;28;20211;-70
2021/04/21 09:52:27;;;;;;;3.97;3.37;;;;;;;;;;5119052;28;20215;-70
2021/04/21 09:54:56;;;;;;;4.77;2.90;;;;;;;;;;5117995;28;20256;-70
2021/04/21 09:57:25;;;;;;;4.73;3.00;;;;;;;;;;5104519;28;20201;-70
2021/04/21 09:59:56;;;;;;;3.43;3.10;;;;;;;;;;5104075;28;20271;-69
2021/04/21 10:02:30;;;;;;;5.20;3.57;;;;;;;;;;5104586;28;20220;-70
2021/04/21 10:04:57;;;;;;;6.23;3.40;;;;;;;;;;5108959;28;20242;-67
2021/04/21 10:07:24;;;;;;;6.23;3.00;;;;;;;;;;5106957;28;20284;-68
2021/04/21 10:09:57;;;;;;;3.10;2.80;;;;;;;;;;5130044;27;20279;-67
2021/04/21 10:12:25;;;;;;;4.17;3.27;;;;;;;;;;5129460;27;20205;-69
2021/04/21 10:15:04;;;;;;;5.33;3.30;;;;;;;;;;5107300;28;20257;-69
2021/04/21 10:17:34;;;;;;;4.57;3.20;;;;;;;;;;5108053;28;20230;-69
2021/04/21 10:20:01;;;;;;;6.83;3.50;;;;;;;;;;5109992;28;20204;-68
2021/04/21 10:22:28;;;;;;;3.90;2.90;;;;;;;;;;5116158;28;20654;-69
2021/04/21 10:24:55;;;;;;;10.10;3.40;;;;;;;;;;5111190;28;20221;-68
2021/04/21 10:27:22;;;;;;;3.60;3.00;;;;;;;;;;5121271;27;20376;-68
2021/04/21 10:29:50;;;;;;;3.77;2.93;;;;;;;;;;5129703;27;20201;-68
2021/04/21 10:32:18;;;;;;;3.47;3.07;;;;;;;;;;5116000;28;20232;-68
2021/04/21 10:34:46;;;;;;;3.37;3.17;;;;;;;;;;5110020;28;20780;-68
2021/04/21 10:37:14;;;;;;;4.10;3.70;;;;;;;;;;5106553;28;20202;-70
2021/04/21 10:39:42;;;;;;;3.70;3.40;;;;;;;;;;5098264;28;20221;-68
2021/04/21 10:42:11;;;;;;;6.10;2.87;;;;;;;;;;5105082;28;20713;-69
2021/04/21 10:44:38;;;;;;;2.80;2.60;;;;;;;;;;5097026;28;20221;-68
2021/04/21 10:47:11;;;;;;;5.60;3.23;;;;;;;;;;5100806;28;20304;-69
2021/04/21 10:49:43;;;;;;;5.27;3.07;;;;;;;;;;5098480;28;20194;-70
2021/04/21 10:52:11;;;;;;;9.20;5.60;;;;;;;;;;5115312;28;20296;-67
2021/04/21 10:54:38;;;;;;;7.00;4.40;;;;;;;;;;5100981;28;20300;-67
2021/04/21 10:57:24;;;;;;;6.67;4.53;;;;;;;;;;5098980;28;20194;-68
2021/04/21 11:00:05;;;;;;;4.60;3.50;;;;;;;;;;5107764;28;20280;-70
2021/04/21 11:02:43;;;;;;;3.10;2.70;;;;;;;;;;5103257;28;20741;-71
2021/04/21 11:05:11;;;;;;;4.70;2.90;;;;;;;;;;5106447;28;20233;-71
2021/04/21 11:07:39;;;;;;;2.90;2.70;;;;;;;;;;5103179;28;20225;-73
2021/04/21 11:10:07;;;;;;;3.97;3.23;;;;;;;;;;5104789;28;20210;-72
2021/04/21 11:12:50;;;;;;;4.07;2.70;;;;;;;;;;5103929;28;20283;-72
2021/04/21 11:15:33;;;;;;;3.90;2.70;;;;;;;;;;5103166;28;20675;-70
2021/04/21 11:18:17;;;;;;;3.77;3.10;;;;;;;;;;5107731;28;20280;-72
2021/04/21 11:20:52;;;;;;;3.20;2.90;;;;;;;;;;5099335;28;20255;-71
2021/04/21 11:23:37;;;;;;;4.73;3.37;;;;;;;;;;5105470;28;20196;-72
2021/04/21 11:26:19;;;;;;;5.63;2.73;;;;;;;;;;5104845;28;20235;-68
2021/04/21 11:28:56;;;;;;;3.37;2.67;;;;;;;;;;5105748;28;20240;-73
2021/04/21 11:31:44;;;;;;;4.20;2.80;;;;;;;;;;5103159;28;20193;-73
2021/04/21 11:34:17;;;;;;;4.20;2.33;;;;;;;;;;5124916;28;20268;-73
2021/04/21 11:36:50;;;;;;;3.20;2.63;;;;;;;;;;5102191;28;20251;-74
2021/04/21 11:39:36;;;;;;;3.33;2.37;;;;;;;;;;5104365;28;20200;-73
2021/04/21 11:42:15;;;;;;;3.37;2.33;;;;;;;;;;5101667;28;20657;-71
2021/04/21 11:44:52;;;;;;;3.43;2.50;;;;;;;;;;5116979;28;20252;-72
2021/04/21 11:47:28;;;;;;;2.60;2.40;;;;;;;;;;5114760;28;20646;-72
2021/04/21 11:50:02;;;;;;;2.63;2.43;;;;;;;;;;5116021;28;20253;-72
2021/04/21 11:52:47;;;;;;;2.73;2.53;;;;;;;;;;5109483;28;20727;-72
2021/04/21 11:55:28;;;;;;;3.73;2.67;;;;;;;;;;5115905;28;20308;-72
2021/04/21 11:57:57;;;;;;;3.03;2.53;;;;;;;;;;5102482;28;20213;-72
2021/04/21 12:00:26;;;;;;;3.90;2.77;;;;;;;;;;5096660;28;20558;-72
2021/04/21 12:02:54;;;;;;;3.00;2.60;;;;;;;;;;5114173;28;20215;-72
2021/04/21 12:05:22;;;;;;;5.77;2.63;;;;;;;;;;5121093;28;20233;-72
2021/04/21 12:07:50;;;;;;;2.63;2.40;;;;;;;;;;5116632;28;20726;-72
2021/04/21 12:10:18;;;;;;;5.10;2.30;;;;;;;;;;5112097;28;20291;-73
2021/04/21 12:12:46;;;;;;;3.97;2.80;;;;;;;;;;5110472;28;20243;-70
2021/04/21 12:15:13;;;;;;;3.50;2.57;;;;;;;;;;5109043;28;20219;-73
2021/04/21 12:17:53;;;;;;;2.50;2.30;;;;;;;;;;5110208;28;20206;-72
2021/04/21 12:20:23;;;;;;;3.57;2.50;;;;;;;;;;5110106;28;20201;-73
2021/04/21 12:22:51;;;;;;;2.57;2.30;;;;;;;;;;5110675;28;20328;-72
2021/04/21 12:25:21;;;;;;;2.47;2.20;;;;;;;;;;5118301;28;20225;-74
2021/04/21 12:27:49;;;;;;;3.93;2.20;;;;;;;;;;5108754;28;20316;-72
2021/04/21 12:30:18;;;;;;;2.67;1.93;;;;;;;;;;5105843;28;20723;-71
2021/04/21 12:33:05;;;;;;;3.33;2.30;;;;;;;;;;5108111;28;20197;-72
2021/04/21 12:35:32;;;;;;;1.90;1.73;;;;;;;;;;5112864;28;20213;-72
2021/04/21 12:38:01;;;;;;;2.23;2.10;;;;;;;;;;5110142;28;20207;-71
2021/04/21 12:40:30;;;;;;;2.87;2.20;;;;;;;;;;5120659;28;20204;-71
2021/04/21 12:43:10;;;;;;;3.00;2.30;;;;;;;;;;5118500;28;20633;-71
2021/04/21 12:45:38;;;;;;;2.90;2.10;;;;;;;;;;5108518;28;20748;-71
2021/04/21 12:48:21;;;;;;;3.27;2.30;;;;;;;;;;5118907;28;20264;-71
2021/04/21 12:50:49;;;;;;;1.60;1.50;;;;;;;;;;5107974;28;20634;-71
2021/04/21 12:53:18;;;;;;;3.77;1.83;;;;;;;;;;5106509;28;20204;-71
2021/04/21 12:55:45;;;;;;;1.83;1.33;;;;;;;;;;5103929;28;20309;-71
2021/04/21 12:58:13;;;;;;;3.53;1.83;;;;;;;;;;5105692;28;20225;-71
2021/04/21 13:00:40;;;;;;;2.37;1.80;;;;;;;;;;5114177;27;20265;-71
2021/04/21 13:03:17;;;;;;;23.43;3.60;;;;;;;;;;5117590;28;20284;-71
2021/04/21 13:05:49;;;;;;;3.20;2.40;;;;;;;;;;5109751;28;20300;-69
2021/04/21 13:08:21;;;;;;;1.90;1.80;;;;;;;;;;5110998;28;20228;-69
2021/04/21 13:10:48;;;;;;;5.37;1.60;;;;;;;;;;5107492;28;20764;-69
2021/04/21 13:13:21;;;;;;;3.07;1.47;;;;;;;;;;5105451;28;20230;-69
2021/04/21 13:15:48;;;;;;;2.13;1.60;;;;;;;;;;5108692;28;20291;-69
2021/04/21 13:18:15;;;;;;;1.60;1.50;;;;;;;;;;5107558;28;20227;-69
2021/04/21 13:20:46;;;;;;;2.00;1.90;;;;;;;;;;5107857;28;20201;-69
2021/04/21 13:23:16;;;;;;;1.67;1.57;;;;;;;;;;5107213;28;20289;-70
2021/04/21 13:25:53;;;;;;;2.30;2.10;;;;;;;;;;5107514;28;20261;-69
2021/04/21 13:28:21;;;;;;;2.50;1.97;;;;;;;;;;5106276;28;20746;-70
2021/04/21 13:31:07;;;;;;;1.93;1.70;;;;;;;;;;5108973;28;20220;-69
2021/04/21 13:33:35;;;;;;;2.10;1.90;;;;;;;;;;5105725;28;20197;-69
2021/04/21 13:36:02;;;;;;;2.23;2.03;;;;;;;;;;5110454;28;20215;-69
2021/04/21 13:38:29;;;;;;;2.73;1.90;;;;;;;;;;5105893;28;20685;-69
2021/04/21 13:40:57;;;;;;;2.20;1.87;;;;;;;;;;5108243;28;20228;-70
2021/04/21 13:43:24;;;;;;;2.47;1.83;;;;;;;;;;5105854;28;20292;-69
2021/04/21 13:45:51;;;;;;;3.40;2.30;;;;;;;;;;5112847;28;20225;-70
2021/04/21 13:48:18;;;;;;;2.73;1.77;;;;;;;;;;5105732;28;20208;-70
2021/04/21 13:50:45;;;;;;;2.57;2.20;;;;;;;;;;5106626;28;20224;-70
2021/04/21 13:53:12;;;;;;;2.80;2.10;;;;;;;;;;5113104;28;20200;-71
2021/04/21 13:55:39;;;;;;;2.70;1.93;;;;;;;;;;5116816;28;20255;-70
2021/04/21 13:58:07;;;;;;;2.37;2.00;;;;;;;;;;5103450;28;20280;-71
2021/04/21 14:00:34;;;;;;;2.00;1.73;;;;;;;;;;5117705;28;20752;-70
2021/04/21 14:03:04;;;;;;;2.93;1.80;;;;;;;;;;5112784;28;20248;-71
2021/04/21 14:05:31;;;;;;;2.20;1.60;;;;;;;;;;5109779;28;20658;-71
2021/04/21 14:07:58;;;;;;;2.20;1.80;;;;;;;;;;5118515;28;20208;-71
2021/04/21 14:10:25;;;;;;;2.93;2.00;;;;;;;;;;5116621;28;20199;-71
2021/04/21 14:12:52;;;;;;;2.00;1.90;;;;;;;;;;5118334;28;20288;-71
2021/04/21 14:15:20;;;;;;;2.80;1.83;;;;;;;;;;5117564;28;20227;-71
2021/04/21 14:17:49;;;;;;;2.83;1.73;;;;;;;;;;5130519;27;20208;-71
2021/04/21 14:20:16;;;;;;;2.87;2.10;;;;;;;;;;5120101;27;20235;-71
2021/04/21 14:22:46;;;;;;;1.83;1.67;;;;;;;;;;5118468;28;20269;-71
2021/04/21 14:25:14;;;;;;;2.00;1.90;;;;;;;;;;5113202;28;20225;-71
2021/04/21 14:27:44;;;;;;;2.03;1.87;;;;;;;;;;5114769;28;20268;-71
2021/04/21 14:30:13;;;;;;;2.70;2.10;;;;;;;;;;5103331;28;20208;-71
2021/04/21 14:32:41;;;;;;;3.37;2.10;;;;;;;;;;5118241;28;20241;-71
2021/04/21 14:35:09;;;;;;;2.13;1.93;;;;;;;;;;5108254;28;20579;-71
2021/04/21 14:37:36;;;;;;;2.83;1.90;;;;;;;;;;5101687;28;20194;-71
2021/04/21 14:40:03;;;;;;;6.17;2.40;;;;;;;;;;5132708;27;20204;-71
2021/04/21 14:42:30;;;;;;;2.33;2.13;;;;;;;;;;5117507;28;20288;-71
2021/04/21 14:44:58;;;;;;;2.17;1.90;;;;;;;;;;5116345;28;20319;-70
2021/04/21 14:47:25;;;;;;;5.90;5.20;;;;;;;;;;5117853;28;20228;-71
2021/04/21 14:49:54;;;;;;;4.80;2.67;;;;;;;;;;5102911;28;20198;-70
2021/04/21 14:52:21;;;;;;;2.63;2.03;;;;;;;;;;5098271;28;20288;-71
2021/04/21 14:54:49;;;;;;;4.43;2.30;;;;;;;;;;5117779;28;20727;-70
2021/04/21 14:57:16;;;;;;;2.50;2.30;;;;;;;;;;5116223;28;20239;-70
2021/04/21 14:59:44;;;;;;;2.20;2.00;;;;;;;;;;5105468;28;20209;-70
2021/04/21 15:02:12;;;;;;;3.10;2.33;;;;;;;;;;5116627;28;20231;-70
2021/04/21 15:04:40;;;;;;;2.37;2.17;;;;;;;;;;5116458;28;20270;-70